Tiempo atmosférico en la estación meteorológica de San Pablo De Los Montes, Toledo (917 m.)



Fecha
DESCASC
Temp. máxima en grados centígrados (hora)
DESCASC
Temp. mínima en grados centígrados (hora)
DESCASC
Temp. media en grados centígrados
DESCASC
Racha de viento máxima en m/sg (hora)
DESCASC
Velocidad máxima media en intervalos de 10 minutos(hora)
DESCASC
Precipitaciones diarias en mm
DESCASC
Precipitaciones de 00:00 a 06:00 en mm
DESCASC
Precipitaciones de 06:00 a 12:00 en mm
DESCASC
Precipitaciones de 12:00 a 18:00 en mm
DESCASC
Precipitaciones de 18:00 a 24:00 en mm
DESCASC
04-03-2021 -- (--) -- (--) -- -- (--) -- (--) 0 0 0 0 0
03-03-2021 -- (--) -- (--) -- -- (--) -- (--) 0 0 0 0 0
02-03-2021 -- (--) -- (--) -- -- (--) -- (--) 0 0 0 0 0
01-03-2021 -- (--) -- (--) -- -- (--) -- (--) 0.1 0 0.1 0 0
28-02-2021 -- (--) -- (--) -- -- (--) -- (--) 0 0 0 0 0
27-02-2021 -- (--) -- (--) -- -- (--) -- (--) 0 0 0 0 0
26-02-2021 -- (--) -- (--) -- -- (--) -- (--) 0 0 0 0 0
25-02-2021 -- (--) -- (--) -- -- (--) -- (--) 0 0 0 0 0
24-02-2021 -- (--) -- (--) -- -- (--) -- (--) 0 0 0 0 0
23-02-2021 -- (--) -- (--) -- -- (--) -- (--) 0 0 0 0 0
22-02-2021 -- (--) -- (--) -- -- (--) -- (--) -- -- 0 0 0
21-02-2021 -- (--) -- (--) -- -- (--) -- (--) 14.5 0 0 9.8 4.7
20-02-2021 -- (--) -- (--) -- -- (--) -- (--) 0 0 0 0 0
19-02-2021 -- (--) -- (--) -- -- (--) -- (--) 0 0 0 0 0
18-02-2021 -- (--) -- (--) -- -- (--) -- (--) -- -- 0 0 0
17-02-2021 -- (--) -- (--) -- -- (--) -- (--) 0 0 0 0 0
16-02-2021 -- (--) -- (--) -- -- (--) -- (--) 0 0 0 0 0
15-02-2021 -- (--) -- (--) -- -- (--) -- (--) 0 0 0 0 0
14-02-2021 -- (--) -- (--) -- -- (--) -- (--) 0 0 0 0 0
13-02-2021 -- (--) -- (--) -- -- (--) -- (--) 0 0 0 0 0
12-02-2021 -- (--) -- (--) -- -- (--) -- (--) 6.1 2.7 3.4 0 0
11-02-2021 -- (--) -- (--) -- -- (--) -- (--) 0.9 0 0 0.3 0.6
10-02-2021 -- (--) -- (--) -- -- (--) -- (--) 4.3 4.1 0.2 0 0
09-02-2021 -- (--) -- (--) -- -- (--) -- (--) 21.7 1 1.8 17.1 1.8
08-02-2021 -- (--) -- (--) -- -- (--) -- (--) 28.8 24 3.2 1.6 0
07-02-2021 -- (--) -- (--) -- -- (--) -- (--) 5.8 4.5 0.9 0 0.4
06-02-2021 -- (--) -- (--) -- -- (--) -- (--) 3 0.5 2.1 0.4 0
05-02-2021 -- (--) -- (--) -- -- (--) -- (--) 17.5 0 1.3 0.9 15.3
04-02-2021 -- (--) -- (--) -- -- (--) -- (--) 1.2 0.7 0.5 0 0
03-02-2021 -- (--) -- (--) -- -- (--) -- (--) 0.8 0 0 0.4 0.4

Gráficas

Temp. máximas Temp. mínimas Temp. medias Precipitaciones Rachas de viento máximas Velocidades máximas media en intervalos de 10 minutos

Datos horarios

Fecha y hora oficial Temperatura (ºC) Velocidad del viento (km/h) Dirección del viento Racha (km/h) Dirección de racha Precipitación (mm) Presión (hPa) Tendencia (hPa) Humedad (%)
2021-03-04 23:00:00 8.5 13 Este 26 Este 0 -- -- 48
2021-03-04 22:00:00 8.9 13 Este 24 Este 0 -- -- 47
2021-03-04 21:00:00 8.8 5 Sudeste 12 Sudeste 0 -- -- 49
2021-03-04 20:00:00 9.4 5 Sudeste 14 Sudeste 0 -- -- 49
2021-03-04 19:00:00 10.1 7 Sudeste 21 Sudeste 0 -- -- 45
2021-03-04 18:00:00 11.4 9 Este 25 Este 0 -- -- 42
2021-03-04 17:00:00 13.2 13 Este 23 Este 0 -- -- 38
2021-03-04 16:00:00 13.9 12 Este 25 Nordeste 0 -- -- 37
2021-03-04 15:00:00 14.2 11 Este 21 Nordeste 0 -- -- 37
2021-03-04 14:00:00 13.5 11 Este 19 Sudeste 0 -- -- 34
2021-03-04 13:00:00 12.6 7 Nordeste 15 Nordeste 0 -- -- 44
2021-03-04 12:00:00 12 4 Este 10 Nordeste 0 -- -- 49
2021-03-04 11:00:00 10.1 0 Calma 8 Norte 0 -- -- 55
2021-03-04 10:00:00 7.7 3 Noroeste 7 Oeste 0 -- -- 62
2021-03-04 09:00:00 5.7 0 Calma 6 Nordeste 0 -- -- 61
2021-03-04 08:00:00 4.4 0 Calma 8 Noroeste 0 -- -- 61
2021-03-04 07:00:00 4.1 2 Oeste 7 Sudoeste 0 -- -- 64
2021-03-04 06:00:00 4.9 0 Calma 7 Sudeste 0 -- -- 60
2021-03-04 05:00:00 5.4 3 Oeste 9 Noroeste 0 -- -- 67
2021-03-04 04:00:00 5.1 4 Oeste 12 Norte 0 -- -- 66
2021-03-04 03:00:00 5.4 4 Oeste 11 Sudeste 0 -- -- 77
2021-03-04 02:00:00 5.9 0 Calma 7 Nordeste 0 -- -- 82
2021-03-04 01:00:00 6.4 0 Calma 5 Este 0 -- -- 81
2021-03-04 00:00:00 7.2 0 Calma 6 Este 0 -- -- 79
2021-03-03 23:00:00 8.1 3 Sudeste 14 Este 0 -- -- 76
2021-03-03 22:00:00 8 3 Sudoeste 6 Oeste 0 -- -- 75
2021-03-03 21:00:00 8.6 2 Oeste 7 Este 0 -- -- 68
2021-03-03 20:00:00 9.6 0 Calma 5 Norte 0 -- -- 65
2021-03-03 19:00:00 11.3 0 Calma 9 Norte 0 -- -- 60
2021-03-03 18:00:00 12.4 5 Noroeste 11 Noroeste 0 -- -- 57
2021-03-03 17:00:00 13.7 3 Nordeste 19 Este 0 -- -- 53
2021-03-03 16:00:00 13.6 3 Este 12 Sudeste 0 -- -- 53
2021-03-03 15:00:00 12.7 3 Este 10 Sudeste 0 -- -- 59
2021-03-03 14:00:00 11.6 4 Nordeste 10 Este 0 -- -- 64
2021-03-03 13:00:00 10.9 2 Este 9 Nordeste 0 -- -- 71
2021-03-03 12:00:00 9.2 2 Sudeste 7 Sudeste 0 -- -- 80
2021-03-03 11:00:00 7.7 2 Noroeste 4 Norte 0 -- -- 87
2021-03-03 10:00:00 6 2 Noroeste 6 Sudeste 0 -- -- 89
2021-03-03 09:00:00 5.5 0 Calma 8 Sur 0 -- -- 89
2021-03-03 08:00:00 6.3 3 Este 8 Sudeste 0 -- -- 89
2021-03-03 07:00:00 5.2 0 Calma 3 Noroeste 0 -- -- 89
2021-03-03 06:00:00 5.1 0 Calma 6 Sudeste 0 -- -- 89
2021-03-03 05:00:00 5.4 0 Calma 4 Sudoeste 0 -- -- 89
2021-03-03 04:00:00 5.1 0 Calma 6 Oeste 0 -- -- 89
2021-03-03 03:00:00 5.9 3 Sudoeste 6 Oeste 0 -- -- 88
2021-03-03 02:00:00 5.6 0 Calma 6 Sudoeste 0 -- -- 87
2021-03-03 01:00:00 6 2 Oeste 4 Oeste 0 -- -- 86
2021-03-03 00:00:00 6 0 Calma 5 Sudoeste 0 -- -- 85
2021-03-02 23:00:00 5.8 2 Oeste 4 Noroeste 0 -- -- 83
2021-03-02 22:00:00 6.7 2 Sudeste 9 Sudeste 0 -- -- 79
2021-03-02 21:00:00 7.3 4 Sudeste 11 Sudeste 0 -- -- 74
2021-03-02 20:00:00 7.8 4 Sudeste 14 Este 0 -- -- 70
2021-03-02 19:00:00 9 8 Este 22 Sudeste 0 -- -- 63
2021-03-02 18:00:00 10.5 12 Este 23 Sudeste 0 -- -- 57
2021-03-02 17:00:00 11.5 8 Este 18 Sudeste 0 -- -- 54
2021-03-02 16:00:00 12.6 4 Nordeste 14 Este 0 -- -- 55
2021-03-02 15:00:00 11.8 2 Nordeste 13 Nordeste 0 -- -- 55
2021-03-02 14:00:00 11.8 8 Este 21 Este 0 -- -- 57
2021-03-02 13:00:00 10.3 11 Este 19 Este 0 -- -- 62
2021-03-02 12:00:00 10.1 14 Este 26 Este 0 -- -- 65
2021-03-02 11:00:00 9.8 11 Este 21 Sudeste 0 -- -- 68
2021-03-02 10:00:00 8.7 3 Este 9 Este 0 -- -- 73
2021-03-02 09:00:00 -- 0 Calma 6 Sudoeste 0 -- -- --
2021-03-02 08:00:00 -- 5 Sur 12 Sur 0 -- -- --
2021-03-02 07:00:00 -- 3 Sur 17 Sur 0 -- -- --
2021-03-02 06:00:00 -- 4 Sur 14 Sudoeste 0 -- -- --
2021-03-02 05:00:00 -- 3 Este 5 Nordeste 0 -- -- --
2021-03-02 04:00:00 -- 0 Calma 5 Nordeste 0 -- -- --
2021-03-02 03:00:00 -- 0 Calma 12 Oeste 0 -- -- --
2021-03-02 02:00:00 -- 2 Sudoeste 10 Sudoeste 0 -- -- --
2021-03-02 01:00:00 -- 4 Oeste 8 Noroeste 0 -- -- --
2021-03-02 00:00:00 -- 0 Calma 5 Sudeste 0 -- -- --
2021-03-01 23:00:00 -- 0 Calma 6 Sudeste 0 -- -- --
2021-03-01 22:00:00 -- 0 Calma 4 Oeste 0 -- -- --
2021-03-01 21:00:00 -- 2 Este 13 Sudeste 0 -- -- --
2021-03-01 20:00:00 -- 9 Este 19 Sudeste 0 -- -- --
2021-03-01 19:00:00 -- 6 Este 13 Nordeste 0 -- -- --
2021-03-01 18:00:00 -- 8 Este 29 Este 0 -- -- --
2021-03-01 17:00:00 -- 10 Este 19 Este 0 -- -- --
2021-03-01 16:00:00 -- 9 Este 18 Sudeste 0 -- -- --
2021-03-01 15:00:00 -- 9 Este 18 Sudeste 0 -- -- --
2021-03-01 14:00:00 -- 8 Este 18 Nordeste 0 -- -- --
2021-03-01 13:00:00 -- 5 Este 14 Nordeste 0 -- -- --
2021-03-01 12:00:00 -- 6 Nordeste 19 Sudeste 0.1 -- -- --
2021-03-01 11:00:00 -- 8 Este -- -- 0 -- -- --
2021-03-01 10:00:00 -- -- -- -- -- 0 -- -- --
2021-03-01 09:00:00 -- -- -- -- -- 0 -- -- --
2021-03-01 08:00:00 -- -- -- -- -- 0 -- -- --
2021-03-01 07:00:00 -- -- -- -- -- 0 -- -- --
2021-03-01 06:00:00 -- -- -- -- -- 0 -- -- --
2021-03-01 05:00:00 -- -- -- -- -- 0 -- -- --
2021-03-01 04:00:00 -- -- -- -- -- 0 -- -- --
2021-03-01 03:00:00 -- -- -- -- -- 0 -- -- --
2021-03-01 02:00:00 -- -- -- -- -- 0 -- -- --
2021-03-01 01:00:00 -- -- -- -- -- 0 -- -- --
2021-03-01 00:00:00 -- -- -- -- -- 0 -- -- --
2021-02-28 23:00:00 -- -- -- -- -- 0 -- -- --
2021-02-28 22:00:00 -- -- -- -- -- 0 -- -- --
2021-02-28 21:00:00 -- -- -- -- -- 0 -- -- --
2021-02-28 20:00:00 -- -- -- -- -- 0 -- -- --
2021-02-28 19:00:00 -- -- -- -- -- 0 -- -- --
2021-02-28 18:00:00 -- -- -- -- -- 0 -- -- --
2021-02-28 17:00:00 -- -- -- -- -- 0 -- -- --
2021-02-28 16:00:00 -- -- -- -- -- 0 -- -- --
2021-02-28 15:00:00 -- -- -- -- -- 0 -- -- --
2021-02-28 14:00:00 -- -- -- -- -- 0 -- -- --
2021-02-28 13:00:00 -- -- -- -- -- 0 -- -- --
2021-02-28 12:00:00 -- -- -- -- -- 0 -- -- --
2021-02-28 11:00:00 -- -- -- -- -- 0 -- -- --
2021-02-28 10:00:00 -- -- -- -- -- 0 -- -- --
2021-02-28 09:00:00 -- -- -- -- -- 0 -- -- --
2021-02-28 08:00:00 -- -- -- -- -- 0 -- -- --
2021-02-28 07:00:00 -- -- -- -- -- 0 -- -- --
2021-02-28 06:00:00 -- -- -- -- -- 0 -- -- --
2021-02-28 05:00:00 -- -- -- -- -- 0 -- -- --
2021-02-28 04:00:00 -- -- -- -- -- 0 -- -- --
2021-02-28 03:00:00 -- -- -- -- -- 0 -- -- --
2021-02-28 02:00:00 -- -- -- -- -- 0 -- -- --
2021-02-28 01:00:00 -- -- -- -- -- 0 -- -- --
2021-02-28 00:00:00 -- -- -- -- -- 0 -- -- --
2021-02-27 23:00:00 -- -- -- -- -- 0 -- -- --
2021-02-27 22:00:00 -- -- -- -- -- 0 -- -- --
2021-02-27 21:00:00 -- -- -- -- -- 0 -- -- --
2021-02-27 20:00:00 -- -- -- -- -- 0 -- -- --
2021-02-27 19:00:00 -- -- -- -- -- 0 -- -- --
2021-02-27 18:00:00 -- -- -- -- -- 0 -- -- --
2021-02-27 17:00:00 -- -- -- -- -- 0 -- -- --
2021-02-27 16:00:00 -- -- -- -- -- 0 -- -- --
2021-02-27 15:00:00 -- -- -- -- -- -- -- -- --
2021-02-27 14:00:00 -- -- -- -- -- 0 -- -- --
2021-02-27 13:00:00 -- -- -- -- -- 0 -- -- --
2021-02-27 12:00:00 -- -- -- -- -- 0 -- -- --
2021-02-27 11:00:00 -- -- -- -- -- 0 -- -- --
2021-02-27 10:00:00 -- -- -- -- -- 0 -- -- --
2021-02-27 09:00:00 -- -- -- -- -- 0 -- -- --
2021-02-27 08:00:00 -- -- -- -- -- 0 -- -- --
2021-02-27 07:00:00 -- -- -- -- -- 0 -- -- --
2021-02-27 06:00:00 -- -- -- -- -- 0 -- -- --
2021-02-27 05:00:00 -- -- -- -- -- 0 -- -- --
2021-02-27 04:00:00 -- -- -- -- -- 0 -- -- --
2021-02-27 03:00:00 -- -- -- -- -- 0 -- -- --
2021-02-27 02:00:00 -- -- -- -- -- 0 -- -- --
2021-02-27 01:00:00 -- -- -- -- -- 0 -- -- --
2021-02-27 00:00:00 -- -- -- -- -- 0 -- -- --
2021-02-26 23:00:00 -- -- -- -- -- 0 -- -- --
2021-02-26 22:00:00 -- -- -- -- -- 0 -- -- --
2021-02-26 21:00:00 -- -- -- -- -- 0 -- -- --
2021-02-26 20:00:00 -- -- -- -- -- 0 -- -- --
2021-02-26 19:00:00 -- -- -- -- -- 0 -- -- --
2021-02-26 18:00:00 -- -- -- -- -- 0 -- -- --
2021-02-26 17:00:00 -- -- -- -- -- 0 -- -- --
2021-02-26 16:00:00 -- -- -- -- -- 0 -- -- --
2021-02-26 15:00:00 -- -- -- -- -- 0 -- -- --
2021-02-26 14:00:00 -- -- -- -- -- 0 -- -- --
2021-02-26 13:00:00 -- -- -- -- -- 0 -- -- --
2021-02-26 12:00:00 -- -- -- -- -- 0 -- -- --
2021-02-26 11:00:00 -- -- -- -- -- 0 -- -- --
2021-02-26 10:00:00 -- -- -- -- -- 0 -- -- --
2021-02-26 09:00:00 -- -- -- -- -- 0 -- -- --
2021-02-26 08:00:00 -- -- -- -- -- 0 -- -- --
2021-02-26 07:00:00 -- -- -- -- -- 0 -- -- --
2021-02-26 06:00:00 -- -- -- -- -- 0 -- -- --
2021-02-26 05:00:00 -- -- -- -- -- 0 -- -- --
2021-02-26 04:00:00 -- -- -- -- -- 0 -- -- --
2021-02-26 03:00:00 -- -- -- -- -- 0 -- -- --
2021-02-26 02:00:00 -- -- -- -- -- 0 -- -- --
2021-02-26 01:00:00 -- -- -- -- -- 0 -- -- --
2021-02-26 00:00:00 -- -- -- -- -- 0 -- -- --
2021-02-25 23:00:00 -- -- -- -- -- 0 -- -- --
2021-02-25 22:00:00 -- -- -- -- -- 0 -- -- --
2021-02-25 21:00:00 -- -- -- -- -- 0 -- -- --
2021-02-25 20:00:00 -- -- -- -- -- 0 -- -- --
2021-02-25 19:00:00 -- -- -- -- -- 0 -- -- --
2021-02-25 18:00:00 -- -- -- -- -- 0 -- -- --
2021-02-25 17:00:00 -- -- -- -- -- 0 -- -- --
2021-02-25 16:00:00 -- -- -- -- -- 0 -- -- --
2021-02-25 15:00:00 -- -- -- -- -- 0 -- -- --
2021-02-25 14:00:00 -- -- -- -- -- 0 -- -- --
2021-02-25 13:00:00 -- -- -- -- -- 0 -- -- --
2021-02-25 12:00:00 -- -- -- -- -- 0 -- -- --
2021-02-25 11:00:00 -- -- -- -- -- 0 -- -- --
2021-02-25 10:00:00 -- -- -- -- -- 0 -- -- --
2021-02-25 09:00:00 -- -- -- -- -- 0 -- -- --
2021-02-25 08:00:00 -- -- -- -- -- 0 -- -- --
2021-02-25 07:00:00 -- -- -- -- -- 0 -- -- --
2021-02-25 06:00:00 -- -- -- -- -- 0 -- -- --
2021-02-25 05:00:00 -- -- -- -- -- 0 -- -- --
2021-02-25 04:00:00 -- -- -- -- -- 0 -- -- --
2021-02-25 03:00:00 -- -- -- -- -- 0 -- -- --
2021-02-25 02:00:00 -- -- -- -- -- 0 -- -- --
2021-02-25 01:00:00 -- -- -- -- -- 0 -- -- --
2021-02-25 00:00:00 -- -- -- -- -- 0 -- -- --
2021-02-24 23:00:00 -- -- -- -- -- 0 -- -- --
2021-02-24 22:00:00 -- -- -- -- -- 0 -- -- --
2021-02-24 21:00:00 -- -- -- -- -- 0 -- -- --
2021-02-24 20:00:00 -- -- -- -- -- 0 -- -- --
2021-02-24 19:00:00 -- -- -- -- -- 0 -- -- --
2021-02-24 18:00:00 -- -- -- -- -- 0 -- -- --
2021-02-24 17:00:00 -- -- -- -- -- 0 -- -- --
2021-02-24 16:00:00 -- -- -- -- -- 0 -- -- --
2021-02-24 15:00:00 -- -- -- -- -- 0 -- -- --
2021-02-24 14:00:00 -- -- -- -- -- 0 -- -- --
2021-02-24 13:00:00 -- -- -- -- -- 0 -- -- --
2021-02-24 12:00:00 -- -- -- -- -- 0 -- -- --
2021-02-24 11:00:00 -- -- -- -- -- 0 -- -- --
2021-02-24 10:00:00 -- -- -- -- -- 0 -- -- --
2021-02-24 09:00:00 -- -- -- -- -- 0 -- -- --
2021-02-24 08:00:00 -- -- -- -- -- 0 -- -- --
2021-02-24 07:00:00 -- -- -- -- -- 0 -- -- --
2021-02-24 06:00:00 -- -- -- -- -- 0 -- -- --
2021-02-24 05:00:00 -- -- -- -- -- 0 -- -- --
2021-02-24 04:00:00 -- -- -- -- -- 0 -- -- --
2021-02-24 03:00:00 -- -- -- -- -- 0 -- -- --
2021-02-24 02:00:00 -- -- -- -- -- 0 -- -- --
2021-02-24 01:00:00 -- -- -- -- -- 0 -- -- --
2021-02-24 00:00:00 -- -- -- -- -- 0 -- -- --
2021-02-23 23:00:00 -- -- -- -- -- 0 -- -- --
2021-02-23 22:00:00 -- -- -- -- -- 0 -- -- --
2021-02-23 21:00:00 -- -- -- -- -- 0 -- -- --
2021-02-23 20:00:00 -- -- -- -- -- 0 -- -- --
2021-02-23 19:00:00 -- -- -- -- -- 0 -- -- --
2021-02-23 18:00:00 -- -- -- -- -- 0 -- -- --
2021-02-23 17:00:00 -- -- -- -- -- 0 -- -- --
2021-02-23 16:00:00 -- -- -- -- -- 0 -- -- --
2021-02-23 15:00:00 -- -- -- -- -- 0 -- -- --
2021-02-23 14:00:00 -- -- -- -- -- 0 -- -- --
2021-02-23 13:00:00 -- -- -- -- -- 0 -- -- --
2021-02-23 12:00:00 -- -- -- -- -- 0 -- -- --
2021-02-23 11:00:00 -- -- -- -- -- 0 -- -- --
2021-02-23 10:00:00 -- -- -- -- -- 0 -- -- --
2021-02-23 09:00:00 -- -- -- -- -- 0 -- -- --
2021-02-23 08:00:00 -- -- -- -- -- 0 -- -- --
2021-02-23 07:00:00 -- -- -- -- -- 0 -- -- --
2021-02-23 06:00:00 -- -- -- -- -- 0 -- -- --
2021-02-23 05:00:00 -- -- -- -- -- 0 -- -- --
2021-02-23 04:00:00 -- -- -- -- -- 0 -- -- --
2021-02-23 03:00:00 -- -- -- -- -- 0 -- -- --
2021-02-23 02:00:00 -- -- -- -- -- 0 -- -- --
2021-02-23 01:00:00 -- -- -- -- -- 0 -- -- --
2021-02-23 00:00:00 -- -- -- -- -- 0 -- -- --
2021-02-22 23:00:00 -- -- -- -- -- 0 -- -- --
2021-02-22 22:00:00 -- -- -- -- -- 0 -- -- --
2021-02-22 21:00:00 -- -- -- -- -- 0 -- -- --
2021-02-22 20:00:00 -- -- -- -- -- 0 -- -- --
2021-02-22 19:00:00 -- -- -- -- -- 0 -- -- --
2021-02-22 18:00:00 -- -- -- -- -- 0 -- -- --
2021-02-22 17:00:00 -- -- -- -- -- 0 -- -- --
2021-02-22 16:00:00 -- -- -- -- -- 0 -- -- --
2021-02-22 15:00:00 -- -- -- -- -- 0 -- -- --
2021-02-22 14:00:00 -- -- -- -- -- 0 -- -- --
2021-02-22 13:00:00 -- -- -- -- -- 0 -- -- --
2021-02-22 12:00:00 -- -- -- -- -- 0 -- -- --
2021-02-22 11:00:00 -- -- -- -- -- 0 -- -- --
2021-02-22 10:00:00 -- -- -- -- -- 0 -- -- --
2021-02-22 09:00:00 -- -- -- -- -- 0 -- -- --
2021-02-22 08:00:00 -- -- -- -- -- 0 -- -- --
2021-02-22 07:00:00 -- -- -- -- -- 0 -- -- --
2021-02-22 06:00:00 -- -- -- -- -- 0 -- -- --
2021-02-22 05:00:00 -- -- -- -- -- 0 -- -- --
2021-02-22 04:00:00 -- -- -- -- -- 0 -- -- --
2021-02-22 03:00:00 -- -- -- -- -- -- -- -- --
2021-02-22 02:00:00 -- -- -- -- -- -- -- -- --
2021-02-22 01:00:00 -- -- -- -- -- -- -- -- --
2021-02-22 00:00:00 -- -- -- -- -- 0.1 -- -- --
2021-02-21 23:00:00 -- -- -- -- -- 0.4 -- -- --
2021-02-21 22:00:00 -- -- -- -- -- 0 -- -- --
2021-02-21 21:00:00 -- -- -- -- -- 0.1 -- -- --
2021-02-21 20:00:00 -- -- -- -- -- 0.4 -- -- --
2021-02-21 19:00:00 -- -- -- -- -- 3.7 -- -- --
2021-02-21 18:00:00 -- -- -- -- -- 4.5 -- -- --
2021-02-21 17:00:00 -- -- -- -- -- 1.9 -- -- --
2021-02-21 16:00:00 -- -- -- -- -- 1.2 -- -- --
2021-02-21 15:00:00 -- -- -- -- -- 1.6 -- -- --
2021-02-21 14:00:00 -- -- -- -- -- 0.1 -- -- --
2021-02-21 13:00:00 -- -- -- -- -- 0.5 -- -- --
2021-02-21 12:00:00 -- -- -- -- -- 0 -- -- --
2021-02-21 11:00:00 -- -- -- -- -- 0 -- -- --
2021-02-21 10:00:00 -- -- -- -- -- 0 -- -- --
2021-02-21 09:00:00 -- -- -- -- -- 0 -- -- --
2021-02-21 08:00:00 -- -- -- -- -- 0 -- -- --
2021-02-21 07:00:00 -- -- -- -- -- 0 -- -- --
2021-02-21 06:00:00 -- -- -- -- -- 0 -- -- --
2021-02-21 05:00:00 -- -- -- -- -- 0 -- -- --
2021-02-21 04:00:00 -- -- -- -- -- 0 -- -- --
2021-02-21 03:00:00 -- -- -- -- -- 0 -- -- --
2021-02-21 02:00:00 -- -- -- -- -- 0 -- -- --
2021-02-21 01:00:00 -- -- -- -- -- 0 -- -- --
2021-02-21 00:00:00 -- -- -- -- -- 0 -- -- --
2021-02-20 23:00:00 -- -- -- -- -- 0 -- -- --
2021-02-20 22:00:00 -- -- -- -- -- 0 -- -- --
2021-02-20 21:00:00 -- -- -- -- -- 0 -- -- --
2021-02-20 20:00:00 -- -- -- -- -- 0 -- -- --
2021-02-20 19:00:00 -- -- -- -- -- 0 -- -- --
2021-02-20 18:00:00 -- -- -- -- -- 0 -- -- --
2021-02-20 17:00:00 -- -- -- -- -- 0 -- -- --
2021-02-20 16:00:00 -- -- -- -- -- 0 -- -- --
2021-02-20 15:00:00 -- -- -- -- -- 0 -- -- --
2021-02-20 14:00:00 -- -- -- -- -- 0 -- -- --
2021-02-20 13:00:00 -- -- -- -- -- 0 -- -- --
2021-02-20 12:00:00 -- -- -- -- -- 0 -- -- --
2021-02-20 11:00:00 -- -- -- -- -- 0 -- -- --
2021-02-20 10:00:00 -- -- -- -- -- 0 -- -- --
2021-02-20 09:00:00 -- -- -- -- -- 0 -- -- --
2021-02-20 08:00:00 -- -- -- -- -- 0 -- -- --
2021-02-20 07:00:00 -- -- -- -- -- 0 -- -- --
2021-02-20 06:00:00 -- -- -- -- -- 0 -- -- --
2021-02-20 05:00:00 -- -- -- -- -- 0 -- -- --
2021-02-20 04:00:00 -- -- -- -- -- 0 -- -- --
2021-02-20 03:00:00 -- -- -- -- -- 0 -- -- --
2021-02-20 02:00:00 -- -- -- -- -- 0 -- -- --
2021-02-20 01:00:00 -- -- -- -- -- 0 -- -- --
2021-02-20 00:00:00 -- -- -- -- -- 0 -- -- --
2021-02-19 23:00:00 -- -- -- -- -- 0 -- -- --
2021-02-19 22:00:00 -- -- -- -- -- 0 -- -- --
2021-02-19 21:00:00 -- -- -- -- -- 0 -- -- --
2021-02-19 20:00:00 -- -- -- -- -- 0 -- -- --
2021-02-19 19:00:00 -- -- -- -- -- 0 -- -- --
2021-02-19 18:00:00 -- -- -- -- -- 0 -- -- --
2021-02-19 17:00:00 -- -- -- -- -- 0 -- -- --
2021-02-19 16:00:00 -- -- -- -- -- 0 -- -- --
2021-02-19 15:00:00 -- -- -- -- -- 0 -- -- --
2021-02-19 14:00:00 -- -- -- -- -- 0 -- -- --
2021-02-19 13:00:00 -- -- -- -- -- 0 -- -- --
2021-02-19 12:00:00 -- -- -- -- -- 0 -- -- --
2021-02-19 11:00:00 -- -- -- -- -- 0 -- -- --
2021-02-19 10:00:00 -- -- -- -- -- 0 -- -- --
2021-02-19 09:00:00 -- -- -- -- -- 0 -- -- --
2021-02-19 08:00:00 -- -- -- -- -- 0 -- -- --
2021-02-19 07:00:00 -- -- -- -- -- 0 -- -- --
2021-02-19 06:00:00 -- -- -- -- -- 0 -- -- --
2021-02-19 05:00:00 -- -- -- -- -- 0 -- -- --
2021-02-19 04:00:00 -- -- -- -- -- 0 -- -- --
2021-02-19 03:00:00 -- -- -- -- -- 0 -- -- --
2021-02-19 02:00:00 -- -- -- -- -- 0 -- -- --
2021-02-19 01:00:00 -- -- -- -- -- 0 -- -- --
2021-02-19 00:00:00 -- -- -- -- -- 0 -- -- --
2021-02-18 23:00:00 -- -- -- -- -- 0 -- -- --
2021-02-18 22:00:00 -- -- -- -- -- 0 -- -- --
2021-02-18 21:00:00 -- -- -- -- -- 0 -- -- --
2021-02-18 20:00:00 -- -- -- -- -- 0 -- -- --
2021-02-18 19:00:00 -- -- -- -- -- 0 -- -- --
2021-02-18 18:00:00 -- -- -- -- -- 0 -- -- --
2021-02-18 17:00:00 -- -- -- -- -- 0 -- -- --
2021-02-18 16:00:00 -- -- -- -- -- 0 -- -- --
2021-02-18 15:00:00 -- -- -- -- -- 0 -- -- --
2021-02-18 14:00:00 -- -- -- -- -- 0 -- -- --
2021-02-18 13:00:00 -- -- -- -- -- 0 -- -- --
2021-02-18 12:00:00 -- -- -- -- -- 0 -- -- --
2021-02-18 11:00:00 -- -- -- -- -- 0 -- -- --
2021-02-18 10:00:00 -- -- -- -- -- 0 -- -- --
2021-02-18 09:00:00 -- -- -- -- -- 0 -- -- --
2021-02-18 08:00:00 -- -- -- -- -- 0 -- -- --
2021-02-18 07:00:00 -- -- -- -- -- 0 -- -- --
2021-02-18 06:00:00 -- -- -- -- -- -- -- -- --
2021-02-18 05:00:00 -- -- -- -- -- -- -- -- --
2021-02-18 04:00:00 -- -- -- -- -- 0 -- -- --
2021-02-18 03:00:00 -- -- -- -- -- 0 -- -- --
2021-02-18 02:00:00 -- -- -- -- -- 0 -- -- --
2021-02-18 01:00:00 -- -- -- -- -- 0 -- -- --
2021-02-18 00:00:00 -- -- -- -- -- 0 -- -- --
2021-02-17 23:00:00 -- -- -- -- -- 0 -- -- --
2021-02-17 22:00:00 -- -- -- -- -- 0 -- -- --
2021-02-17 21:00:00 -- -- -- -- -- 0 -- -- --
2021-02-17 20:00:00 -- -- -- -- -- 0 -- -- --
2021-02-17 19:00:00 -- -- -- -- -- 0 -- -- --
2021-02-17 18:00:00 -- -- -- -- -- 0 -- -- --
2021-02-17 17:00:00 -- -- -- -- -- 0 -- -- --
2021-02-17 16:00:00 -- -- -- -- -- 0 -- -- --
2021-02-17 15:00:00 -- -- -- -- -- 0 -- -- --
2021-02-17 14:00:00 -- -- -- -- -- 0 -- -- --
2021-02-17 13:00:00 -- -- -- -- -- -- -- -- --
2021-02-17 12:00:00 -- -- -- -- -- 2 -- -- --
2021-02-17 11:00:00 -- -- -- -- -- 0 -- -- --
2021-02-17 10:00:00 -- -- -- -- -- 0 -- -- --
2021-02-17 09:00:00 -- -- -- -- -- 0 -- -- --
2021-02-17 08:00:00 -- -- -- -- -- 0 -- -- --
2021-02-17 07:00:00 -- -- -- -- -- 0 -- -- --
2021-02-17 06:00:00 -- -- -- -- -- 0 -- -- --
2021-02-17 05:00:00 -- -- -- -- -- 0 -- -- --
2021-02-17 04:00:00 -- -- -- -- -- 0 -- -- --
2021-02-17 03:00:00 -- -- -- -- -- 0 -- -- --
2021-02-17 02:00:00 -- -- -- -- -- 0 -- -- --
2021-02-17 01:00:00 -- -- -- -- -- 0 -- -- --
2021-02-17 00:00:00 -- -- -- -- -- 0 -- -- --
2021-02-16 23:00:00 -- -- -- -- -- 0 -- -- --
2021-02-16 22:00:00 -- -- -- -- -- 0 -- -- --
2021-02-16 21:00:00 -- -- -- -- -- 0 -- -- --
2021-02-16 20:00:00 -- -- -- -- -- 0 -- -- --
2021-02-16 19:00:00 -- -- -- -- -- 0 -- -- --
2021-02-16 18:00:00 -- -- -- -- -- 0 -- -- --
2021-02-16 17:00:00 -- -- -- -- -- 0 -- -- --
2021-02-16 16:00:00 -- -- -- -- -- 0 -- -- --
2021-02-16 15:00:00 -- -- -- -- -- 0 -- -- --
2021-02-16 14:00:00 -- -- -- -- -- 0 -- -- --
2021-02-16 13:00:00 -- -- -- -- -- 0 -- -- --
2021-02-16 12:00:00 -- -- -- -- -- 0 -- -- --
2021-02-16 11:00:00 -- -- -- -- -- 0 -- -- --
2021-02-16 10:00:00 -- -- -- -- -- 0 -- -- --
2021-02-16 09:00:00 -- -- -- -- -- 0 -- -- --
2021-02-16 08:00:00 -- -- -- -- -- 0 -- -- --
2021-02-16 07:00:00 -- -- -- -- -- 0 -- -- --
2021-02-16 06:00:00 -- -- -- -- -- 0 -- -- --
2021-02-16 05:00:00 -- -- -- -- -- 0 -- -- --
2021-02-16 04:00:00 -- -- -- -- -- 0 -- -- --
2021-02-16 03:00:00 -- -- -- -- -- 0 -- -- --
2021-02-16 02:00:00 -- -- -- -- -- 0 -- -- --
2021-02-16 01:00:00 -- -- -- -- -- 0 -- -- --
2021-02-16 00:00:00 -- -- -- -- -- 0 -- -- --
2021-02-15 23:00:00 -- -- -- -- -- 0 -- -- --
2021-02-15 22:00:00 -- -- -- -- -- 0 -- -- --
2021-02-15 21:00:00 -- -- -- -- -- 0 -- -- --
2021-02-15 20:00:00 -- -- -- -- -- 0 -- -- --
2021-02-15 19:00:00 -- -- -- -- -- 0 -- -- --
2021-02-15 18:00:00 -- -- -- -- -- 0 -- -- --
2021-02-15 17:00:00 -- -- -- -- -- 0 -- -- --
2021-02-15 16:00:00 -- -- -- -- -- 0 -- -- --
2021-02-15 15:00:00 -- -- -- -- -- 0 -- -- --
2021-02-15 14:00:00 -- -- -- -- -- 0 -- -- --
2021-02-15 13:00:00 -- -- -- -- -- 0 -- -- --
2021-02-15 12:00:00 -- -- -- -- -- 0 -- -- --
2021-02-15 11:00:00 -- -- -- -- -- 0 -- -- --
2021-02-15 10:00:00 -- -- -- -- -- 0 -- -- --
2021-02-15 09:00:00 -- -- -- -- -- 0 -- -- --
2021-02-15 08:00:00 -- -- -- -- -- 0 -- -- --
2021-02-15 07:00:00 -- -- -- -- -- 0 -- -- --
2021-02-15 06:00:00 -- -- -- -- -- 0 -- -- --
2021-02-15 05:00:00 -- -- -- -- -- 0 -- -- --
2021-02-15 04:00:00 -- -- -- -- -- 0 -- -- --
2021-02-15 03:00:00 -- -- -- -- -- 0 -- -- --
2021-02-15 02:00:00 -- -- -- -- -- 0 -- -- --
2021-02-15 01:00:00 -- -- -- -- -- 0 -- -- --
2021-02-15 00:00:00 -- -- -- -- -- 0 -- -- --
2021-02-14 23:00:00 -- -- -- -- -- 0 -- -- --
2021-02-14 22:00:00 -- -- -- -- -- 0 -- -- --
2021-02-14 21:00:00 -- -- -- -- -- 0 -- -- --
2021-02-14 20:00:00 -- -- -- -- -- 0 -- -- --
2021-02-14 19:00:00 -- -- -- -- -- 0 -- -- --
2021-02-14 18:00:00 -- -- -- -- -- 0 -- -- --
2021-02-14 17:00:00 -- -- -- -- -- 0 -- -- --
2021-02-14 16:00:00 -- -- -- -- -- 0 -- -- --
2021-02-14 15:00:00 -- -- -- -- -- 0 -- -- --
2021-02-14 14:00:00 -- -- -- -- -- 0 -- -- --
2021-02-14 13:00:00 -- -- -- -- -- 0 -- -- --
2021-02-14 12:00:00 -- -- -- -- -- 0 -- -- --
2021-02-14 11:00:00 -- -- -- -- -- 0 -- -- --
2021-02-14 10:00:00 -- -- -- -- -- 0 -- -- --
2021-02-14 09:00:00 -- -- -- -- -- 0 -- -- --
2021-02-14 08:00:00 -- -- -- -- -- 0 -- -- --
2021-02-14 07:00:00 -- -- -- -- -- 0 -- -- --
2021-02-14 06:00:00 -- -- -- -- -- 0 -- -- --
2021-02-14 05:00:00 -- -- -- -- -- 0 -- -- --
2021-02-14 04:00:00 -- -- -- -- -- 0 -- -- --
2021-02-14 03:00:00 -- -- -- -- -- 0 -- -- --
2021-02-14 02:00:00 -- -- -- -- -- 0 -- -- --
2021-02-14 01:00:00 -- -- -- -- -- 0 -- -- --
2021-02-14 00:00:00 -- -- -- -- -- 0 -- -- --
2021-02-13 23:00:00 -- -- -- -- -- 0 -- -- --
2021-02-13 22:00:00 -- -- -- -- -- 0 -- -- --
2021-02-13 21:00:00 -- -- -- -- -- 0 -- -- --
2021-02-13 20:00:00 -- -- -- -- -- 0 -- -- --
2021-02-13 19:00:00 -- -- -- -- -- 0 -- -- --
2021-02-13 18:00:00 -- -- -- -- -- 0 -- -- --
2021-02-13 17:00:00 -- -- -- -- -- 0 -- -- --
2021-02-13 16:00:00 -- -- -- -- -- 0 -- -- --
2021-02-13 15:00:00 -- -- -- -- -- 0 -- -- --
2021-02-13 14:00:00 -- -- -- -- -- 0 -- -- --
2021-02-13 13:00:00 -- -- -- -- -- 0 -- -- --
2021-02-13 08:00:00 -- -- -- -- -- 0 -- -- --
2021-02-13 07:00:00 -- -- -- -- -- 0 -- -- --
2021-02-13 06:00:00 -- -- -- -- -- 0 -- -- --
2021-02-13 05:00:00 -- -- -- -- -- 0 -- -- --
2021-02-13 04:00:00 -- -- -- -- -- 0 -- -- --
2021-02-13 03:00:00 -- -- -- -- -- 0 -- -- --
2021-02-13 02:00:00 -- -- -- -- -- 0 -- -- --
2021-02-13 01:00:00 -- -- -- -- -- 0 -- -- --
2021-02-13 00:00:00 -- -- -- -- -- 0 -- -- --
2021-02-12 23:00:00 -- -- -- -- -- 0 -- -- --
2021-02-12 22:00:00 -- -- -- -- -- 0 -- -- --
2021-02-12 21:00:00 -- -- -- -- -- 0 -- -- --
2021-02-12 20:00:00 -- -- -- -- -- 0 -- -- --
2021-02-12 19:00:00 -- -- -- -- -- 0 -- -- --
2021-02-12 18:00:00 -- -- -- -- -- 0 -- -- --
2021-02-12 17:00:00 -- -- -- -- -- 0 -- -- --
2021-02-12 16:00:00 -- -- -- -- -- 0 -- -- --
2021-02-12 15:00:00 -- -- -- -- -- 0 -- -- --
2021-02-12 14:00:00 -- -- -- -- -- 0 -- -- --
2021-02-12 13:00:00 -- -- -- -- -- 0 -- -- --
2021-02-12 12:00:00 -- -- -- -- -- 0 -- -- --
2021-02-12 11:00:00 -- -- -- -- -- 0 -- -- --
2021-02-12 10:00:00 -- -- -- -- -- 0 -- -- --
2021-02-12 09:00:00 -- -- -- -- -- 0 -- -- --
2021-02-12 08:00:00 -- -- -- -- -- 0.7 -- -- --
2021-02-12 07:00:00 -- -- -- -- -- 2.7 -- -- --
2021-02-12 06:00:00 -- -- -- -- -- 1.9 -- -- --
2021-02-12 05:00:00 -- -- -- -- -- 0.7 -- -- --
2021-02-12 04:00:00 -- -- -- -- -- 0 -- -- --
2021-02-12 03:00:00 -- -- -- -- -- 0.1 -- -- --
2021-02-12 02:00:00 -- -- -- -- -- 0 -- -- --
2021-02-12 01:00:00 -- -- -- -- -- 0 -- -- --
2021-02-12 00:00:00 -- -- -- -- -- 0 -- -- --
2021-02-11 23:00:00 -- -- -- -- -- 0.3 -- -- --
2021-02-11 22:00:00 -- -- -- -- -- 0 -- -- --
2021-02-11 21:00:00 -- -- -- -- -- 0 -- -- --
2021-02-11 20:00:00 -- -- -- -- -- 0.1 -- -- --
2021-02-11 19:00:00 -- -- -- -- -- 0.2 -- -- --
2021-02-11 18:00:00 -- -- -- -- -- 0 -- -- --
2021-02-11 17:00:00 -- -- -- -- -- 0 -- -- --
2021-02-11 16:00:00 -- -- -- -- -- 0.2 -- -- --
2021-02-11 15:00:00 -- -- -- -- -- 0 -- -- --
2021-02-11 14:00:00 -- -- -- -- -- 0 -- -- --
2021-02-11 13:00:00 -- -- -- -- -- 0.1 -- -- --
2021-02-11 12:00:00 -- -- -- -- -- 0 -- -- --
2021-02-11 11:00:00 -- -- -- -- -- 0 -- -- --
2021-02-11 10:00:00 -- -- -- -- -- 0 -- -- --
2021-02-11 09:00:00 -- -- -- -- -- 0 -- -- --
2021-02-11 08:00:00 -- -- -- -- -- 0 -- -- --
2021-02-11 07:00:00 -- -- -- -- -- 0 -- -- --
2021-02-11 06:00:00 -- -- -- -- -- 0 -- -- --
2021-02-11 05:00:00 -- -- -- -- -- 0 -- -- --
2021-02-11 04:00:00 -- -- -- -- -- 0 -- -- --
2021-02-11 03:00:00 -- -- -- -- -- 0 -- -- --
2021-02-11 02:00:00 -- -- -- -- -- 0 -- -- --
2021-02-11 01:00:00 -- -- -- -- -- 0 -- -- --
2021-02-11 00:00:00 -- -- -- -- -- 0 -- -- --
2021-02-10 23:00:00 -- -- -- -- -- 0 -- -- --
2021-02-10 22:00:00 -- -- -- -- -- 0 -- -- --
2021-02-10 21:00:00 -- -- -- -- -- 0 -- -- --
2021-02-10 20:00:00 -- -- -- -- -- 0 -- -- --
2021-02-10 19:00:00 -- -- -- -- -- 0 -- -- --
2021-02-10 18:00:00 -- -- -- -- -- 0 -- -- --
2021-02-10 17:00:00 -- -- -- -- -- 0 -- -- --
2021-02-10 16:00:00 -- -- -- -- -- 0 -- -- --
2021-02-10 15:00:00 -- -- -- -- -- 0 -- -- --
2021-02-10 14:00:00 -- -- -- -- -- 0 -- -- --
2021-02-10 13:00:00 -- -- -- -- -- 0 -- -- --
2021-02-10 12:00:00 -- -- -- -- -- 0 -- -- --
2021-02-10 11:00:00 -- -- -- -- -- 0 -- -- --
2021-02-10 10:00:00 -- -- -- -- -- 0 -- -- --
2021-02-10 09:00:00 -- -- -- -- -- 0.1 -- -- --
2021-02-10 08:00:00 -- -- -- -- -- 0 -- -- --
2021-02-10 07:00:00 -- -- -- -- -- 0.1 -- -- --
2021-02-10 06:00:00 -- -- -- -- -- 0.4 -- -- --
2021-02-10 05:00:00 -- -- -- -- -- 1 -- -- --
2021-02-10 04:00:00 -- -- -- -- -- 0 -- -- --
2021-02-10 03:00:00 -- -- -- -- -- 0.5 -- -- --
2021-02-10 02:00:00 -- -- -- -- -- 2.2 -- -- --
2021-02-10 01:00:00 -- -- -- -- -- 0 -- -- --
2021-02-10 00:00:00 -- -- -- -- -- 0.1 -- -- --
2021-02-09 23:00:00 -- -- -- -- -- 0 -- -- --
2021-02-09 22:00:00 -- -- -- -- -- 0.3 -- -- --
2021-02-09 21:00:00 -- -- -- -- -- 0 -- -- --
2021-02-09 20:00:00 -- -- -- -- -- 0.4 -- -- --
2021-02-09 19:00:00 -- -- -- -- -- 1 -- -- --
2021-02-09 18:00:00 -- -- -- -- -- 0.4 -- -- --
2021-02-09 17:00:00 -- -- -- -- -- 0.8 -- -- --
2021-02-09 16:00:00 -- -- -- -- -- 6.4 -- -- --
2021-02-09 15:00:00 -- -- -- -- -- 3.8 -- -- --
2021-02-09 14:00:00 -- -- -- -- -- 3.7 -- -- --
2021-02-09 13:00:00 -- -- -- -- -- 2 -- -- --
2021-02-09 12:00:00 -- -- -- -- -- 0.7 -- -- --
2021-02-09 11:00:00 -- -- -- -- -- 0.5 -- -- --
2021-02-09 10:00:00 -- -- -- -- -- 0.2 -- -- --
2021-02-09 09:00:00 -- -- -- -- -- 0 -- -- --
2021-02-09 08:00:00 -- -- -- -- -- 0.2 -- -- --
2021-02-09 07:00:00 -- -- -- -- -- 0.2 -- -- --
2021-02-09 06:00:00 -- -- -- -- -- 0.8 -- -- --
2021-02-09 05:00:00 -- -- -- -- -- 0.2 -- -- --
2021-02-09 04:00:00 -- -- -- -- -- 0 -- -- --
2021-02-09 03:00:00 -- -- -- -- -- 0 -- -- --
2021-02-09 02:00:00 -- -- -- -- -- 0 -- -- --
2021-02-09 01:00:00 -- -- -- -- -- 0 -- -- --
2021-02-09 00:00:00 -- -- -- -- -- 0 -- -- --
2021-02-08 23:00:00 -- -- -- -- -- 0 -- -- --
2021-02-08 22:00:00 -- -- -- -- -- 0 -- -- --
2021-02-08 21:00:00 -- -- -- -- -- 0 -- -- --
2021-02-08 20:00:00 -- -- -- -- -- 0 -- -- --
2021-02-08 19:00:00 -- -- -- -- -- 0 -- -- --
2021-02-08 18:00:00 -- -- -- -- -- 0 -- -- --
2021-02-08 17:00:00 -- -- -- -- -- 0.1 -- -- --
2021-02-08 16:00:00 -- -- -- -- -- 0 -- -- --
2021-02-08 15:00:00 -- -- -- -- -- 0 -- -- --
2021-02-08 14:00:00 -- -- -- -- -- 0.7 -- -- --
2021-02-08 13:00:00 -- -- -- -- -- 0.8 -- -- --
2021-02-08 12:00:00 -- -- -- -- -- 1.9 -- -- --
2021-02-08 11:00:00 -- -- -- -- -- 0 -- -- --
2021-02-08 10:00:00 -- -- -- -- -- 0 -- -- --
2021-02-08 09:00:00 -- -- -- -- -- 0 -- -- --
2021-02-08 08:00:00 -- -- -- -- -- 0.1 -- -- --
2021-02-08 07:00:00 -- -- -- -- -- 1.2 -- -- --
2021-02-08 06:00:00 -- -- -- -- -- 6.6 -- -- --
2021-02-08 05:00:00 -- -- -- -- -- 9 -- -- --
2021-02-08 04:00:00 -- -- -- -- -- 3.3 -- -- --
2021-02-08 03:00:00 -- -- -- -- -- 2.1 -- -- --
2021-02-08 02:00:00 -- -- -- -- -- 1.9 -- -- --
2021-02-08 01:00:00 -- -- -- -- -- 1.1 -- -- --
2021-02-08 00:00:00 -- -- -- -- -- 0.1 -- -- --
2021-02-07 23:00:00 -- -- -- -- -- 0 -- -- --
2021-02-07 22:00:00 -- -- -- -- -- 0 -- -- --
2021-02-07 21:00:00 -- -- -- -- -- 0 -- -- --
2021-02-07 20:00:00 -- -- -- -- -- 0.3 -- -- --
2021-02-07 19:00:00 -- -- -- -- -- 0 -- -- --
2021-02-07 18:00:00 -- -- -- -- -- 0 -- -- --
2021-02-07 17:00:00 -- -- -- -- -- 0 -- -- --
2021-02-07 16:00:00 -- -- -- -- -- 0 -- -- --
2021-02-07 15:00:00 -- -- -- -- -- 0 -- -- --
2021-02-07 14:00:00 -- -- -- -- -- 0 -- -- --
2021-02-07 13:00:00 -- -- -- -- -- 0 -- -- --
2021-02-07 12:00:00 -- -- -- -- -- 0 -- -- --
2021-02-07 11:00:00 -- -- -- -- -- 0 -- -- --
2021-02-07 10:00:00 -- -- -- -- -- 0.2 -- -- --
2021-02-07 09:00:00 -- -- -- -- -- 0.7 -- -- --
2021-02-07 08:00:00 -- -- -- -- -- 0 -- -- --
2021-02-07 07:00:00 -- -- -- -- -- 0 -- -- --
2021-02-07 06:00:00 -- -- -- -- -- 0 -- -- --
2021-02-07 05:00:00 -- -- -- -- -- 0.2 -- -- --
2021-02-07 04:00:00 -- -- -- -- -- 1.2 -- -- --
2021-02-07 03:00:00 -- -- -- -- -- 0.1 -- -- --
2021-02-07 02:00:00 -- -- -- -- -- 0.5 -- -- --
2021-02-07 01:00:00 -- -- -- -- -- 2.5 -- -- --
2021-02-07 00:00:00 -- -- -- -- -- 0 -- -- --
2021-02-06 23:00:00 -- -- -- -- -- 0 -- -- --
2021-02-06 22:00:00 -- -- -- -- -- 0 -- -- --
2021-02-06 21:00:00 -- -- -- -- -- 0 -- -- --
2021-02-06 20:00:00 -- -- -- -- -- 0 -- -- --
2021-02-06 19:00:00 -- -- -- -- -- 0 -- -- --
2021-02-06 18:00:00 -- -- -- -- -- 0 -- -- --
2021-02-06 17:00:00 -- -- -- -- -- 0 -- -- --
2021-02-06 16:00:00 -- -- -- -- -- 0.2 -- -- --
2021-02-06 15:00:00 -- -- -- -- -- 0.2 -- -- --
2021-02-06 14:00:00 -- -- -- -- -- 0 -- -- --
2021-02-06 13:00:00 -- -- -- -- -- 0 -- -- --
2021-02-06 12:00:00 -- -- -- -- -- 0.1 -- -- --
2021-02-06 11:00:00 -- -- -- -- -- 0.3 -- -- --
2021-02-06 10:00:00 -- -- -- -- -- 0.3 -- -- --
2021-02-06 09:00:00 -- -- -- -- -- 0.3 -- -- --
2021-02-06 08:00:00 -- -- -- -- -- 0.1 -- -- --
2021-02-06 07:00:00 -- -- -- -- -- 1 -- -- --
2021-02-06 06:00:00 -- -- -- -- -- 0.5 -- -- --
2021-02-06 05:00:00 -- -- -- -- -- 0 -- -- --
2021-02-06 04:00:00 -- -- -- -- -- 0 -- -- --
2021-02-06 03:00:00 -- -- -- -- -- 0 -- -- --
2021-02-06 02:00:00 -- -- -- -- -- 0 -- -- --
2021-02-06 01:00:00 -- -- -- -- -- 0 -- -- --
2021-02-06 00:00:00 -- -- -- -- -- 0 -- -- --
2021-02-05 23:00:00 -- -- -- -- -- 0.4 -- -- --
2021-02-05 22:00:00 -- -- -- -- -- 0 -- -- --
2021-02-05 21:00:00 -- -- -- -- -- 13.5 -- -- --
2021-02-05 20:00:00 -- -- -- -- -- 1.4 -- -- --
2021-02-05 19:00:00 -- -- -- -- -- 0 -- -- --
2021-02-05 18:00:00 -- -- -- -- -- 0 -- -- --
2021-02-05 17:00:00 -- -- -- -- -- 0 -- -- --
2021-02-05 16:00:00 -- -- -- -- -- 0 -- -- --
2021-02-05 15:00:00 -- -- -- -- -- 0.9 -- -- --
2021-02-05 14:00:00 -- -- -- -- -- 0 -- -- --
2021-02-05 13:00:00 -- -- -- -- -- 0 -- -- --
2021-02-05 12:00:00 -- -- -- -- -- 0 -- -- --
2021-02-05 11:00:00 -- -- -- -- -- 0.2 -- -- --
2021-02-05 10:00:00 -- -- -- -- -- 1.1 -- -- --
2021-02-05 09:00:00 -- -- -- -- -- 0 -- -- --
2021-02-05 08:00:00 -- -- -- -- -- 0 -- -- --
2021-02-05 07:00:00 -- -- -- -- -- 0 -- -- --
2021-02-05 06:00:00 -- -- -- -- -- 0 -- -- --
2021-02-05 05:00:00 -- -- -- -- -- 0 -- -- --
2021-02-05 04:00:00 -- -- -- -- -- 0 -- -- --
2021-02-05 03:00:00 -- -- -- -- -- 0 -- -- --
2021-02-05 02:00:00 -- -- -- -- -- 0 -- -- --
2021-02-05 01:00:00 -- -- -- -- -- 0 -- -- --
2021-02-05 00:00:00 -- -- -- -- -- 0 -- -- --
2021-02-04 23:00:00 -- -- -- -- -- 0 -- -- --
2021-02-04 22:00:00 -- -- -- -- -- 0 -- -- --
2021-02-04 21:00:00 -- -- -- -- -- 0 -- -- --
2021-02-04 20:00:00 -- -- -- -- -- 0 -- -- --
2021-02-04 19:00:00 -- -- -- -- -- 0 -- -- --
2021-02-04 18:00:00 -- -- -- -- -- 0 -- -- --
2021-02-04 17:00:00 -- -- -- -- -- 0 -- -- --
2021-02-04 16:00:00 -- -- -- -- -- 0 -- -- --
2021-02-04 15:00:00 -- -- -- -- -- 0 -- -- --
2021-02-04 14:00:00 -- -- -- -- -- 0 -- -- --
2021-02-04 13:00:00 -- -- -- -- -- 0 -- -- --
2021-02-04 12:00:00 -- -- -- -- -- 0 -- -- --
2021-02-04 11:00:00 -- -- -- -- -- 0 -- -- --
2021-02-04 10:00:00 -- -- -- -- -- 0 -- -- --
2021-02-04 09:00:00 -- -- -- -- -- 0.2 -- -- --
2021-02-04 08:00:00 -- -- -- -- -- 0.2 -- -- --
2021-02-04 07:00:00 -- -- -- -- -- 0.1 -- -- --
2021-02-04 06:00:00 -- -- -- -- -- 0.1 -- -- --
2021-02-04 05:00:00 -- -- -- -- -- 0.2 -- -- --
2021-02-04 04:00:00 -- -- -- -- -- 0.2 -- -- --
2021-02-04 03:00:00 -- -- -- -- -- 0.1 -- -- --
2021-02-04 02:00:00 -- -- -- -- -- 0 -- -- --
2021-02-04 01:00:00 -- -- -- -- -- 0.1 -- -- --
2021-02-04 00:00:00 -- -- -- -- -- 0.2 -- -- --
2021-02-03 23:00:00 -- -- -- -- -- 0.2 -- -- --
2021-02-03 22:00:00 -- -- -- -- -- 0 -- -- --
2021-02-03 21:00:00 -- -- -- -- -- 0 -- -- --
2021-02-03 20:00:00 -- -- -- -- -- 0 -- -- --
2021-02-03 19:00:00 -- -- -- -- -- 0 -- -- --
2021-02-03 18:00:00 -- -- -- -- -- 0.3 -- -- --
2021-02-03 17:00:00 -- -- -- -- -- 0 -- -- --
2021-02-03 16:00:00 -- -- -- -- -- 0.1 -- -- --
2021-02-03 15:00:00 -- -- -- -- -- 0 -- -- --
2021-02-03 14:00:00 -- -- -- -- -- 0 -- -- --
2021-02-03 13:00:00 -- -- -- -- -- 0 -- -- --
2021-02-03 12:00:00 -- -- -- -- -- 0 -- -- --
2021-02-03 11:00:00 -- -- -- -- -- 0 -- -- --
2021-02-03 10:00:00 -- -- -- -- -- 0 -- -- --
2021-02-03 09:00:00 -- -- -- -- -- 0 -- -- --
2021-02-03 08:00:00 -- -- -- -- -- 0 -- -- --
2021-02-03 07:00:00 -- -- -- -- -- 0 -- -- --
2021-02-03 06:00:00 -- -- -- -- -- 0 -- -- --
2021-02-03 05:00:00 -- -- -- -- -- 0 -- -- --
2021-02-03 04:00:00 -- -- -- -- -- 0 -- -- --
2021-02-03 03:00:00 -- -- -- -- -- 0 -- -- --
2021-02-03 02:00:00 -- -- -- -- -- 0 -- -- --
2021-02-03 01:00:00 -- -- -- -- -- 0 -- -- --
2021-02-03 00:00:00 -- -- -- -- -- 0 -- -- --